createdAt,value
2019-04-19T00:00:12.798Z,14.90
2019-04-19T00:01:11.305Z,14.90
2019-04-19T00:02:12.198Z,14.90
2019-04-19T00:03:11.632Z,14.84
2019-04-19T00:04:12.135Z,14.86
2019-04-19T00:05:09.380Z,14.80
2019-04-19T00:06:15.958Z,14.83
2019-04-19T00:07:13.151Z,14.86
2019-04-19T00:08:22.327Z,14.75
2019-04-19T00:09:21.517Z,14.80
2019-04-19T00:10:23.782Z,14.78
2019-04-19T00:11:18.912Z,14.74
2019-04-19T00:12:21.916Z,14.67
2019-04-19T00:13:09.756Z,14.60
2019-04-19T00:14:08.593Z,14.53
2019-04-19T00:15:09.684Z,14.46
2019-04-19T00:16:08.854Z,14.44
2019-04-19T00:17:13.952Z,14.44
2019-04-19T00:18:12.901Z,14.42
2019-04-19T00:19:35.611Z,14.32
2019-04-19T00:20:45.284Z,14.32
2019-04-19T00:21:24.634Z,14.17
2019-04-19T00:22:28.992Z,14.20
2019-04-19T00:23:18.719Z,14.20
2019-04-19T00:24:08.559Z,14.20
2019-04-19T00:25:09.304Z,14.12
2019-04-19T00:26:08.654Z,14.01
2019-04-19T00:27:09.650Z,13.99
2019-04-19T00:28:08.778Z,13.96
2019-04-19T00:29:17.836Z,13.98
2019-04-19T00:30:24.068Z,13.96
2019-04-19T00:31:22.636Z,13.92
2019-04-19T00:32:24.086Z,13.94
2019-04-19T00:33:18.059Z,13.89
2019-04-19T00:34:08.669Z,13.95
2019-04-19T00:35:09.491Z,13.91
2019-04-19T00:36:11.050Z,13.89
2019-04-19T00:37:09.885Z,13.91
2019-04-19T00:38:14.515Z,13.96
2019-04-19T00:39:23.990Z,14.01
2019-04-19T00:40:27.898Z,14.01
2019-04-19T00:41:25.608Z,14.01
2019-04-19T00:42:28.146Z,14.14
2019-04-19T00:43:25.245Z,14.14
2019-04-19T00:44:33.035Z,14.19
2019-04-19T00:45:23.732Z,14.17
2019-04-19T00:46:25.055Z,14.14
2019-04-19T00:47:27.076Z,14.17
2019-04-19T00:49:15.927Z,14.16
2019-04-19T00:50:18.591Z,14.14
2019-04-19T00:51:18.703Z,14.13
2019-04-19T00:52:23.463Z,14.14
2019-04-19T00:53:22.800Z,14.13
2019-04-19T00:54:18.914Z,14.02
2019-04-19T00:55:16.805Z,13.98
2019-04-19T00:56:15.252Z,14.04
2019-04-19T00:57:19.079Z,13.96
2019-04-19T00:58:16.392Z,14.02
2019-04-19T00:59:12.923Z,14.02
2019-04-19T01:00:11.015Z,13.96
2019-04-19T01:01:14.338Z,13.98
2019-04-19T01:02:14.214Z,13.88
2019-04-19T01:03:12.645Z,13.87
2019-04-19T01:04:13.355Z,13.94
2019-04-19T01:05:13.670Z,13.91
2019-04-19T01:06:15.086Z,13.89
2019-04-19T01:07:13.269Z,13.74
2019-04-19T01:08:13.947Z,13.71
2019-04-19T01:09:25.679Z,13.63
2019-04-19T01:10:22.698Z,13.63
2019-04-19T01:11:24.915Z,13.58
2019-04-19T01:12:20.500Z,13.59
2019-04-19T01:13:17.836Z,13.56
2019-04-19T01:14:21.951Z,13.59
2019-04-19T01:15:19.677Z,13.58
2019-04-19T01:16:21.187Z,13.69
2019-04-19T01:17:22.499Z,13.67
2019-04-19T01:18:23.115Z,13.74
2019-04-19T01:19:13.089Z,13.74
2019-04-19T01:20:11.980Z,13.79
2019-04-19T01:21:09.433Z,13.73
2019-04-19T01:22:13.826Z,13.69
2019-04-19T01:23:12.252Z,13.76
2019-04-19T01:24:09.724Z,13.71
2019-04-19T01:25:16.165Z,13.71
2019-04-19T01:26:12.071Z,13.67
2019-04-19T01:27:14.088Z,13.81
2019-04-19T01:28:15.994Z,13.70
2019-04-19T01:29:12.870Z,13.71
2019-04-19T01:30:10.466Z,13.67
2019-04-19T01:31:16.386Z,13.71
2019-04-19T01:32:13.659Z,13.71
2019-04-19T01:33:10.581Z,13.59
2019-04-19T01:34:16.337Z,13.55
2019-04-19T01:35:14.868Z,13.41
2019-04-19T01:36:10.393Z,13.37
2019-04-19T01:37:17.261Z,13.36
2019-04-19T01:38:10.536Z,13.21
2019-04-19T01:39:25.293Z,13.17
2019-04-19T01:40:26.019Z,13.20
2019-04-19T01:41:27.165Z,13.09
2019-04-19T01:42:24.720Z,13.09
2019-04-19T01:43:29.047Z,13.02
2019-04-19T01:44:27.667Z,13.03
2019-04-19T01:45:22.222Z,13.07
2019-04-19T01:46:31.772Z,12.95
2019-04-19T01:47:31.925Z,13.00
2019-04-19T01:48:29.155Z,12.97
2019-04-19T01:49:22.547Z,12.95
2019-04-19T01:50:24.575Z,13.02
2019-04-19T01:51:29.420Z,13.04
2019-04-19T01:52:37.032Z,13.03
2019-04-19T01:53:29.316Z,13.15
2019-04-19T01:54:26.703Z,13.18
2019-04-19T01:55:18.661Z,13.25
2019-04-19T01:56:12.172Z,13.18
2019-04-19T01:57:12.413Z,13.24
2019-04-19T01:58:14.066Z,13.15
2019-04-19T01:59:10.118Z,13.14
2019-04-19T02:00:12.969Z,13.21
2019-04-19T02:01:15.484Z,13.20
2019-04-19T02:02:14.578Z,13.20
2019-04-19T02:03:11.095Z,13.07
2019-04-19T02:04:15.596Z,13.14
2019-04-19T02:05:14.602Z,13.22
2019-04-19T02:06:13.995Z,13.12
2019-04-19T02:07:12.621Z,13.14
2019-04-19T02:08:14.076Z,13.04
2019-04-19T02:09:11.232Z,13.07
2019-04-19T02:10:22.366Z,13.00
2019-04-19T02:11:26.085Z,13.06
2019-04-19T02:12:27.355Z,13.04
2019-04-19T02:13:19.816Z,13.04
2019-04-19T02:14:17.058Z,13.00
2019-04-19T02:15:14.872Z,13.07
2019-04-19T02:16:17.974Z,13.02
2019-04-19T02:17:13.335Z,13.04
2019-04-19T02:18:12.263Z,13.07
2019-04-19T02:19:16.379Z,13.09
2019-04-19T02:20:11.975Z,13.09
2019-04-19T02:21:13.140Z,13.07
2019-04-19T02:22:16.094Z,13.21
2019-04-19T02:23:13.148Z,13.25
2019-04-19T02:24:10.654Z,13.22
2019-04-19T02:25:17.024Z,13.20
2019-04-19T02:26:14.631Z,13.15
2019-04-19T02:27:13.435Z,13.17
2019-04-19T02:28:15.870Z,13.18
2019-04-19T02:29:18.065Z,13.24
2019-04-19T02:30:19.330Z,13.12
2019-04-19T02:33:40.878Z,13.12
2019-04-19T02:34:57.235Z,13.04
2019-04-19T02:35:34.786Z,13.02
2019-04-19T02:36:44.231Z,12.92
2019-04-19T02:37:34.091Z,12.92
2019-04-19T02:38:37.327Z,12.85
2019-04-19T02:43:45.630Z,12.89
2019-04-19T02:44:47.679Z,12.78
2019-04-19T02:45:38.744Z,12.71
2019-04-19T02:46:42.879Z,12.67
2019-04-19T02:48:49.030Z,12.71
2019-04-19T02:51:01.493Z,12.62
2019-04-19T02:51:39.290Z,12.54
2019-04-19T02:52:44.162Z,12.56
2019-04-19T02:53:39.391Z,12.54
2019-04-19T02:54:40.580Z,12.49
2019-04-19T02:55:38.839Z,12.57
2019-04-19T02:58:33.923Z,12.52
2019-04-19T03:27:49.598Z,12.54
2019-04-19T03:28:41.704Z,12.56
2019-04-19T03:29:38.903Z,12.46
2019-04-19T03:31:01.429Z,12.52
2019-04-19T03:32:04.640Z,12.48
2019-04-19T03:33:05.238Z,12.48
2019-04-19T03:33:58.969Z,12.44
2019-04-19T03:35:01.013Z,12.37
2019-04-19T03:35:56.247Z,12.39
2019-04-19T03:36:47.259Z,12.39
2019-04-19T03:37:52.756Z,12.37
2019-04-19T03:38:51.606Z,12.34
2019-04-19T03:40:00.689Z,12.44
2019-04-19T03:40:50.670Z,12.39
2019-04-19T03:42:09.823Z,12.33
2019-04-19T03:42:52.501Z,12.33
2019-04-19T03:43:51.847Z,12.38
2019-04-19T03:44:49.288Z,12.33
2019-04-19T03:45:56.453Z,12.34
2019-04-19T03:47:51.625Z,12.23
2019-04-19T03:48:49.487Z,12.26
2019-04-19T03:49:52.468Z,12.21
2019-04-19T03:50:54.694Z,12.23
2019-04-19T03:51:58.603Z,12.19
2019-04-19T03:52:48.981Z,12.13
2019-04-19T03:54:50.301Z,12.13
2019-04-19T03:55:57.731Z,12.21
2019-04-19T03:56:49.192Z,12.12
2019-04-19T03:57:43.777Z,12.13
2019-04-19T03:58:33.851Z,12.16
2019-04-19T03:59:33.060Z,12.20
2019-04-19T04:00:32.491Z,12.20
2019-04-19T04:01:39.633Z,12.09
2019-04-19T04:02:38.895Z,11.97
2019-04-19T04:03:37.606Z,11.99
2019-04-19T04:04:34.934Z,11.93
2019-04-19T04:05:36.737Z,11.93
2019-04-19T04:06:36.638Z,11.89
2019-04-19T04:07:33.695Z,11.93
2019-04-19T04:08:32.941Z,11.96
2019-04-19T04:09:39.183Z,12.01
2019-04-19T04:10:36.149Z,11.99
2019-04-19T04:11:33.397Z,11.97
2019-04-19T04:12:44.027Z,11.94
2019-04-19T04:13:40.812Z,11.97
2019-04-19T04:14:51.909Z,11.89
2019-04-19T04:15:47.304Z,11.94
2019-04-19T04:16:38.997Z,11.78
2019-04-19T04:17:33.307Z,11.82
2019-04-19T04:18:32.797Z,11.80
2019-04-19T04:19:33.454Z,11.86
2019-04-19T04:20:35.324Z,11.75
2019-04-19T04:21:36.889Z,11.74
2019-04-19T04:22:37.357Z,11.71
2019-04-19T04:23:37.587Z,11.64
2019-04-19T04:24:37.085Z,11.71
2019-04-19T04:25:43.099Z,11.68
2019-04-19T04:26:45.224Z,11.57
2019-04-19T04:27:47.129Z,11.52
2019-04-19T04:28:45.627Z,11.52
2019-04-19T04:29:38.897Z,11.49
2019-04-19T04:30:42.084Z,11.57
2019-04-19T04:31:43.424Z,11.57
2019-04-19T04:32:46.967Z,11.57
2019-04-19T04:33:45.955Z,11.49
2019-04-19T04:34:45.682Z,11.57
2019-04-19T04:35:48.297Z,11.49
2019-04-19T04:36:49.606Z,11.53
2019-04-19T04:37:44.710Z,11.50
2019-04-19T04:38:37.821Z,11.52
2019-04-19T04:39:32.495Z,11.52
2019-04-19T04:40:33.723Z,11.59
2019-04-19T04:41:34.312Z,11.56
2019-04-19T04:42:39.567Z,11.44
2019-04-19T04:43:43.592Z,11.52
2019-04-19T04:44:50.699Z,11.53
2019-04-19T04:46:57.702Z,11.71
2019-04-19T04:47:47.581Z,11.78
2019-04-19T04:48:52.800Z,12.02
2019-04-19T04:49:53.808Z,12.12
2019-04-19T04:50:56.441Z,12.34
2019-04-19T04:51:48.111Z,12.39
2019-04-19T04:52:37.893Z,12.42
2019-04-19T04:53:32.603Z,12.48
2019-04-19T04:54:33.427Z,12.44
2019-04-19T04:55:32.767Z,12.49
2019-04-19T04:56:46.621Z,12.62
2019-04-19T04:57:40.594Z,12.52
2019-04-19T04:58:37.183Z,12.52
2019-04-19T04:59:35.013Z,12.49
2019-04-19T05:00:41.052Z,12.49
2019-04-19T05:01:43.880Z,12.48
2019-04-19T05:02:45.020Z,12.66
2019-04-19T05:03:48.389Z,12.93
2019-04-19T05:04:46.276Z,12.95
2019-04-19T05:05:49.705Z,13.03
2019-04-19T05:06:54.464Z,13.09
2019-04-19T05:07:52.926Z,13.21
2019-04-19T05:08:49.843Z,13.18
2019-04-19T05:09:53.272Z,13.17
2019-04-19T05:10:48.831Z,13.20
2019-04-19T05:11:59.055Z,13.15
2019-04-19T05:13:11.987Z,13.07
2019-04-19T05:13:56.054Z,13.21
2019-04-19T05:14:48.927Z,13.36
2019-04-19T05:15:53.451Z,13.56
2019-04-19T05:17:04.726Z,13.80
2019-04-19T05:17:58.655Z,13.92
2019-04-19T05:18:52.416Z,14.04
2019-04-19T05:19:59.145Z,14.17
2019-04-19T05:20:48.097Z,14.29
2019-04-19T05:21:52.893Z,14.17
2019-04-19T05:22:54.995Z,14.09
2019-04-19T05:23:55.727Z,13.96
2019-04-19T05:24:57.727Z,13.87
2019-04-19T05:25:51.404Z,13.88
2019-04-19T05:27:04.726Z,13.79
2019-04-19T05:27:50.299Z,13.70
2019-04-19T05:28:50.283Z,13.69
2019-04-19T05:29:39.862Z,13.63
2019-04-19T05:30:42.706Z,13.62
2019-04-19T05:31:41.236Z,13.46
2019-04-19T05:32:35.811Z,13.51
2019-04-19T05:33:47.722Z,13.47
2019-04-19T05:34:52.482Z,13.40
2019-04-19T05:35:52.165Z,13.40
2019-04-19T05:36:51.151Z,13.22
2019-04-19T05:37:54.137Z,13.17
2019-04-19T05:39:08.902Z,13.21
2019-04-19T05:39:55.762Z,13.21
2019-04-19T05:40:46.506Z,13.38
2019-04-19T05:41:49.995Z,13.43
2019-04-19T05:42:49.229Z,13.41
2019-04-19T05:45:12.080Z,13.44
2019-04-19T05:45:58.594Z,13.62
2019-04-19T05:46:54.465Z,13.70
2019-04-19T05:47:46.242Z,13.71
2019-04-19T05:48:44.760Z,13.76
2019-04-19T05:49:52.667Z,13.73
2019-04-19T05:50:57.242Z,13.80
2019-04-19T05:51:51.303Z,13.98
2019-04-19T05:52:47.126Z,14.42
2019-04-19T05:53:41.150Z,14.56
2019-04-19T05:54:34.497Z,14.64
2019-04-19T05:55:34.654Z,14.60
2019-04-19T05:56:38.169Z,14.53
2019-04-19T05:57:50.379Z,14.64
2019-04-19T05:58:49.041Z,14.67
2019-04-19T05:59:44.770Z,14.69
2019-04-19T06:00:47.351Z,14.75
2019-04-19T06:01:52.080Z,14.61
2019-04-19T06:02:47.824Z,14.47
2019-04-19T06:03:52.612Z,14.27
2019-04-19T06:05:02.592Z,14.19
2019-04-19T06:06:01.195Z,14.12
2019-04-19T06:06:48.571Z,14.13
2019-04-19T06:07:45.599Z,14.20
2019-04-19T06:08:36.409Z,14.14
2019-04-19T06:09:34.729Z,14.06
2019-04-19T06:10:44.436Z,14.12
2019-04-19T06:11:37.793Z,14.21
2019-04-19T06:12:36.990Z,14.44
2019-04-19T06:13:37.208Z,14.44
2019-04-19T06:15:01.065Z,14.47
2019-04-19T06:15:55.662Z,14.47
2019-04-19T06:16:46.871Z,14.43
2019-04-19T06:17:55.077Z,14.49
2019-04-19T06:18:48.594Z,14.54
2019-04-19T06:19:49.739Z,14.94
2019-04-19T06:20:56.393Z,15.13
2019-04-19T06:21:50.571Z,15.52
2019-04-19T06:22:54.409Z,15.93
2019-04-19T06:24:14.820Z,15.94
2019-04-19T06:24:48.332Z,15.82
2019-04-19T06:25:58.463Z,15.96
2019-04-19T06:27:06.717Z,16.27
2019-04-19T06:29:01.696Z,16.68
2019-04-19T06:30:04.818Z,16.77
2019-04-19T06:30:53.461Z,16.78
2019-04-19T06:31:58.145Z,16.89
2019-04-19T06:32:58.510Z,17.22
2019-04-19T06:33:53.552Z,17.40
2019-04-19T06:34:49.679Z,17.59
2019-04-19T06:35:43.864Z,17.35
2019-04-19T06:36:35.321Z,17.35
2019-04-19T06:37:37.204Z,17.36
2019-04-19T06:38:35.532Z,17.47
2019-04-19T06:39:35.289Z,17.44
2019-04-19T06:40:37.524Z,17.50
2019-04-19T06:41:42.032Z,17.59
2019-04-19T06:42:42.208Z,17.78
2019-04-19T06:43:47.205Z,18.09
2019-04-19T06:44:58.757Z,18.47
2019-04-19T06:45:55.529Z,18.82
2019-04-19T06:46:46.607Z,18.86
2019-04-19T06:47:45.060Z,19.11
2019-04-19T06:48:37.808Z,18.90
2019-04-19T06:49:35.963Z,18.99
2019-04-19T06:50:39.639Z,19.33
2019-04-19T06:51:42.689Z,19.48
2019-04-19T06:52:36.737Z,19.47
2019-04-19T06:53:41.006Z,19.36
2019-04-19T06:54:39.687Z,19.50
2019-04-19T06:55:39.731Z,19.63
2019-04-19T06:56:38.863Z,19.72
2019-04-19T06:57:45.498Z,19.79
2019-04-19T06:58:45.419Z,19.87
2019-04-19T06:59:50.713Z,19.84
2019-04-19T07:00:59.533Z,19.76
2019-04-19T07:02:41.206Z,19.76
2019-04-19T07:03:40.637Z,19.91
2019-04-19T07:04:49.134Z,19.95
2019-04-19T07:05:49.543Z,20.02
2019-04-19T07:06:46.604Z,19.83
2019-04-19T07:08:18.269Z,19.95
2019-04-19T07:10:08.152Z,20.10
2019-04-19T07:11:06.222Z,20.30
2019-04-19T07:12:11.981Z,20.51
2019-04-19T07:13:55.962Z,20.34
2019-04-19T07:15:14.439Z,20.16
2019-04-19T07:16:16.106Z,20.21
2019-04-19T07:17:15.412Z,20.49
2019-04-19T07:19:13.492Z,20.64
2019-04-19T07:20:04.603Z,20.53
2019-04-19T07:21:12.452Z,20.72
2019-04-19T07:22:08.010Z,20.84
2019-04-19T07:23:06.900Z,20.68
2019-04-19T07:24:16.200Z,20.65
2019-04-19T07:25:21.607Z,20.43
2019-04-19T07:26:16.930Z,20.38
2019-04-19T07:27:13.655Z,20.20
2019-04-19T07:28:04.888Z,20.33
2019-04-19T07:29:04.186Z,20.12
2019-04-19T07:31:11.476Z,20.00
2019-04-19T07:32:08.182Z,20.02
